createdAt,value
2022-10-22T00:03:41.221Z,26.63
2022-10-22T00:08:43.637Z,21.60
2022-10-22T00:18:55.052Z,30.33
2022-10-22T00:23:57.583Z,23.30
2022-10-22T00:29:00.045Z,28.63
2022-10-22T00:34:02.707Z,22.07
2022-10-22T00:39:05.217Z,17.43
2022-10-22T00:44:07.750Z,19.60
2022-10-22T00:49:10.164Z,20.97
2022-10-22T00:54:12.734Z,17.27
2022-10-22T00:59:17.077Z,17.87
2022-10-22T01:04:20.809Z,14.47
2022-10-22T01:09:44.985Z,23.17
2022-10-22T01:15:10.256Z,18.40
2022-10-22T01:20:48.384Z,20.63
2022-10-22T01:25:56.259Z,13.13
2022-10-22T01:31:01.208Z,18.43
2022-10-22T01:36:04.985Z,18.77
2022-10-22T01:41:08.746Z,22.70
2022-10-22T01:46:12.918Z,18.03
2022-10-22T01:51:36.663Z,17.77
2022-10-22T01:57:06.972Z,8.63
2022-10-22T02:08:08.845Z,22.43
2022-10-22T02:13:17.354Z,18.33
2022-10-22T02:18:23.708Z,13.20
2022-10-22T02:23:27.091Z,10.83
2022-10-22T02:28:35.169Z,12.33
2022-10-22T02:33:46.768Z,18.60
2022-10-22T02:38:51.549Z,20.33
2022-10-22T02:43:55.961Z,11.60
2022-10-22T02:48:58.402Z,13.20
2022-10-22T02:54:00.861Z,13.50
2022-10-22T02:59:03.454Z,9.53
2022-10-22T03:04:06.098Z,17.07
2022-10-22T03:09:08.550Z,10.77
2022-10-22T03:14:11.314Z,11.53
2022-10-22T03:19:13.924Z,14.43
2022-10-22T03:24:22.337Z,17.67
2022-10-22T03:29:27.388Z,12.77
2022-10-22T03:34:30.187Z,9.67
2022-10-22T03:39:34.975Z,9.00
2022-10-22T03:44:39.676Z,13.93
2022-10-22T03:49:42.369Z,14.80
2022-10-22T03:54:44.992Z,8.90
2022-10-22T03:59:47.507Z,15.97
2022-10-22T04:04:49.886Z,13.67
2022-10-22T04:09:52.538Z,13.23
2022-10-22T04:14:54.932Z,20.53
2022-10-22T04:19:57.420Z,20.63
2022-10-22T04:24:59.872Z,15.17
2022-10-22T04:30:04.139Z,28.00
2022-10-22T04:35:06.978Z,28.50
2022-10-22T04:40:10.250Z,10.63
2022-10-22T04:45:12.781Z,17.27
2022-10-22T04:50:15.401Z,13.50
2022-10-22T04:55:18.017Z,14.13
2022-10-22T05:00:20.622Z,13.17
2022-10-22T05:05:23.070Z,10.87
2022-10-22T05:10:25.523Z,14.23
2022-10-22T05:15:27.930Z,12.20
2022-10-22T05:20:30.379Z,12.20
2022-10-22T05:25:36.867Z,19.50
2022-10-22T05:30:39.248Z,19.57
2022-10-22T05:35:46.634Z,12.33
2022-10-22T05:40:59.189Z,11.67
2022-10-22T05:46:04.210Z,12.60
2022-10-22T05:51:09.636Z,13.37
2022-10-22T05:56:15.894Z,14.77
2022-10-22T06:01:20.949Z,13.97
2022-10-22T06:06:29.721Z,20.37
2022-10-22T06:11:34.993Z,15.73
2022-10-22T06:16:38.127Z,15.57
2022-10-22T06:21:40.753Z,11.50
2022-10-22T06:26:43.888Z,22.03
2022-10-22T06:31:46.326Z,17.17
2022-10-22T06:36:48.807Z,17.67
2022-10-22T06:41:51.228Z,17.60
2022-10-22T06:46:53.992Z,21.97
2022-10-22T06:51:56.360Z,16.60
2022-10-22T06:56:58.729Z,22.97
2022-10-22T07:02:01.130Z,19.73
2022-10-22T07:07:04.879Z,29.47
2022-10-22T07:12:07.482Z,27.00
2022-10-22T07:17:10.194Z,25.73
2022-10-22T07:22:12.634Z,35.03
2022-10-22T07:27:15.047Z,36.33
2022-10-22T07:32:19.653Z,26.30
2022-10-22T07:37:25.435Z,31.37
2022-10-22T07:42:27.869Z,27.67
2022-10-22T07:47:30.437Z,38.37
2022-10-22T07:52:33.059Z,43.07
2022-10-22T07:57:37.068Z,18.83
2022-10-22T08:02:39.873Z,18.50
2022-10-22T08:07:42.552Z,31.33
2022-10-22T08:12:45.035Z,24.00
2022-10-22T08:17:47.477Z,43.27
2022-10-22T08:22:49.941Z,26.60
2022-10-22T08:27:52.448Z,15.20
2022-10-22T08:32:54.972Z,16.33
2022-10-22T08:37:57.561Z,23.23
2022-10-22T08:43:05.956Z,31.27
2022-10-22T08:48:43.773Z,17.00
2022-10-22T08:53:49.149Z,11.63
2022-10-22T08:59:32.057Z,38.43
2022-10-22T09:04:41.907Z,44.17
2022-10-22T09:09:51.459Z,19.60
2022-10-22T09:14:54.426Z,16.00
2022-10-22T09:20:10.482Z,57.63
2022-10-22T09:25:22.312Z,21.27
2022-10-22T09:30:28.515Z,38.17
2022-10-22T09:35:34.766Z,45.33
2022-10-22T09:40:51.137Z,49.70
2022-10-22T09:46:02.769Z,23.00
2022-10-22T09:51:21.945Z,25.23
2022-10-22T09:56:35.512Z,31.03
2022-10-22T10:01:41.016Z,34.07
2022-10-22T10:06:44.798Z,37.33
2022-10-22T10:12:04.402Z,31.83
2022-10-22T10:17:31.504Z,37.23
2022-10-22T10:22:53.123Z,39.70
2022-10-22T10:27:55.577Z,30.67
2022-10-22T10:33:00.886Z,31.30
2022-10-22T10:38:18.472Z,28.43
2022-10-22T10:43:41.266Z,29.40
2022-10-22T10:48:54.889Z,26.60
2022-10-22T10:54:26.579Z,30.33
2022-10-22T10:59:46.489Z,27.00
2022-10-22T11:05:10.452Z,26.43
2022-10-22T11:11:02.613Z,27.27
2022-10-22T11:16:31.023Z,22.37
2022-10-22T11:21:45.279Z,23.33
2022-10-22T11:27:04.439Z,23.77
2022-10-22T11:32:15.872Z,22.73
2022-10-22T11:37:18.993Z,28.23
2022-10-22T11:42:41.033Z,29.80
2022-10-22T11:48:10.776Z,24.13
2022-10-22T11:53:13.244Z,31.07
2022-10-22T11:58:35.883Z,32.83
2022-10-22T12:03:44.804Z,33.50
2022-10-22T12:08:50.426Z,32.70
2022-10-22T12:14:14.711Z,33.23
2022-10-22T12:19:26.211Z,35.40
2022-10-22T12:24:35.400Z,32.77
2022-10-22T12:29:37.916Z,35.20
2022-10-22T12:34:47.448Z,31.60
2022-10-22T12:39:51.165Z,38.27
2022-10-22T12:44:57.200Z,35.83
2022-10-22T12:50:03.949Z,35.27
2022-10-22T12:55:10.351Z,39.03
2022-10-22T13:00:28.867Z,36.80
2022-10-22T13:05:38.947Z,36.13
2022-10-22T13:10:49.183Z,38.70
2022-10-22T13:15:51.570Z,35.47
2022-10-22T13:21:01.944Z,36.40
2022-10-22T13:26:18.137Z,38.57
2022-10-22T13:31:22.964Z,33.30
2022-10-22T13:36:25.699Z,26.17
2022-10-22T13:41:32.297Z,31.87
2022-10-22T13:46:40.587Z,32.40
2022-10-22T13:51:44.023Z,29.70
2022-10-22T13:56:46.967Z,29.77
2022-10-22T14:01:49.526Z,27.50
2022-10-22T14:06:52.115Z,31.40
2022-10-22T14:11:54.608Z,28.73
2022-10-22T14:16:56.996Z,37.33
2022-10-22T14:21:59.486Z,31.67
2022-10-22T14:27:01.949Z,29.47
2022-10-22T14:32:06.478Z,30.03
2022-10-22T14:37:26.920Z,36.90
2022-10-22T14:42:30.105Z,38.37
2022-10-22T14:47:33.363Z,42.23
2022-10-22T14:52:35.837Z,52.30
2022-10-22T14:57:41.728Z,43.67
2022-10-22T15:02:44.963Z,48.53
2022-10-22T15:07:47.709Z,52.73
2022-10-22T15:12:50.273Z,44.17
2022-10-22T15:17:53.006Z,54.37
2022-10-22T15:22:56.483Z,37.57
2022-10-22T15:28:04.627Z,34.80
2022-10-22T15:33:10.869Z,38.37
2022-10-22T15:38:13.272Z,30.50
2022-10-22T15:43:15.717Z,30.60
2022-10-22T15:48:18.069Z,38.23
2022-10-22T15:53:20.534Z,25.13
2022-10-22T15:58:23.165Z,31.93
2022-10-22T16:03:25.869Z,31.67
2022-10-22T16:08:28.872Z,30.60
2022-10-22T16:13:31.678Z,33.90
2022-10-22T16:18:34.460Z,23.53
2022-10-22T16:23:36.916Z,29.03
2022-10-22T16:28:39.289Z,25.90
2022-10-22T16:33:47.807Z,29.87
2022-10-22T16:38:51.697Z,27.07
2022-10-22T16:43:55.518Z,27.37
2022-10-22T16:48:58.310Z,28.93
2022-10-22T16:54:00.669Z,25.70
2022-10-22T16:59:03.195Z,26.00
2022-10-22T17:04:05.682Z,24.90
2022-10-22T17:09:08.212Z,22.77
2022-10-22T17:14:10.711Z,23.97
2022-10-22T17:19:15.832Z,25.73
2022-10-22T17:24:18.601Z,22.60
2022-10-22T17:29:22.139Z,26.03
2022-10-22T17:34:24.934Z,23.37
2022-10-22T17:39:27.513Z,25.37
2022-10-22T17:44:30.054Z,32.83
2022-10-22T17:49:32.460Z,24.93
2022-10-22T17:54:35.242Z,30.27
2022-10-22T17:59:37.810Z,22.03
2022-10-22T18:04:40.291Z,26.57
2022-10-22T18:09:43.027Z,22.83
2022-10-22T18:14:47.183Z,24.73
2022-10-22T18:19:49.616Z,24.73
2022-10-22T18:24:53.121Z,31.50
2022-10-22T18:29:55.542Z,24.93
2022-10-22T18:34:58.005Z,20.27
2022-10-22T18:40:00.453Z,35.90
2022-10-22T18:45:03.216Z,26.93
2022-10-22T18:50:06.213Z,30.80
2022-10-22T18:55:08.733Z,22.90
2022-10-22T19:00:11.802Z,24.87
2022-10-22T19:05:14.278Z,26.53
2022-10-22T19:10:17.796Z,25.80
2022-10-22T19:15:20.248Z,29.10
2022-10-22T19:20:22.683Z,26.70
2022-10-22T19:25:25.172Z,23.00
2022-10-22T19:30:27.685Z,23.43
2022-10-22T19:35:30.358Z,24.07
2022-10-22T19:40:32.876Z,24.67
2022-10-22T19:45:39.764Z,23.80
2022-10-22T19:50:42.240Z,19.10
2022-10-22T19:55:45.160Z,43.27
2022-10-22T20:00:47.590Z,29.70
2022-10-22T20:05:53.107Z,21.13
2022-10-22T20:10:55.530Z,22.20
2022-10-22T20:15:57.924Z,21.43
2022-10-22T20:21:05.624Z,20.00
2022-10-22T20:26:08.557Z,25.80
2022-10-22T20:31:17.012Z,23.03
2022-10-22T20:36:22.785Z,21.03
2022-10-22T20:41:25.364Z,22.60
2022-10-22T20:46:30.755Z,23.67
2022-10-22T20:51:34.942Z,19.33
2022-10-22T20:56:39.349Z,20.13
2022-10-22T21:01:46.661Z,22.57
2022-10-22T21:06:50.356Z,22.57
2022-10-22T21:11:57.109Z,20.53
2022-10-22T21:16:59.898Z,20.33
2022-10-22T21:22:02.450Z,23.43
2022-10-22T21:27:07.271Z,27.40
2022-10-22T21:32:09.843Z,23.50
2022-10-22T21:37:12.253Z,25.67
2022-10-22T21:42:17.619Z,21.30
2022-10-22T21:47:20.082Z,33.57
2022-10-22T21:52:22.585Z,30.77
2022-10-22T21:57:24.982Z,27.60
2022-10-22T22:02:28.819Z,24.73
2022-10-22T22:07:31.243Z,23.13
2022-10-22T22:12:33.589Z,20.20
2022-10-22T22:17:36.532Z,21.40
2022-10-22T22:22:40.295Z,23.87
2022-10-22T22:27:43.231Z,23.40
2022-10-22T22:32:45.865Z,19.67
2022-10-22T22:37:48.427Z,24.60
2022-10-22T22:42:50.881Z,27.97
2022-10-22T22:47:53.235Z,20.53
2022-10-22T22:52:55.638Z,26.60
2022-10-22T22:57:58.655Z,24.80
2022-10-22T23:03:01.107Z,24.77
2022-10-22T23:08:03.514Z,22.40
2022-10-22T23:13:05.901Z,23.30
2022-10-22T23:18:08.279Z,21.20
2022-10-22T23:23:10.666Z,21.80
2022-10-22T23:28:13.070Z,23.60
2022-10-22T23:33:16.459Z,19.17
2022-10-22T23:38:19.112Z,17.53
2022-10-22T23:43:21.483Z,21.27
2022-10-22T23:48:24.170Z,25.47
2022-10-22T23:53:26.746Z,18.10
2022-10-22T23:58:29.140Z,16.57
